createdAt,value
2018-08-13T00:01:04.829Z,18.40
2018-08-13T00:03:32.363Z,18.40
2018-08-13T00:05:59.941Z,18.30
2018-08-13T00:08:28.438Z,18.10
2018-08-13T00:10:56.953Z,18.20
2018-08-13T00:13:26.221Z,18.40
2018-08-13T00:15:53.769Z,18.30
2018-08-13T00:18:21.306Z,18.40
2018-08-13T00:20:48.855Z,18.30
2018-08-13T00:23:16.414Z,18.30
2018-08-13T00:25:43.956Z,18.30
2018-08-13T00:28:13.486Z,18.30
2018-08-13T00:30:41.019Z,18.30
2018-08-13T00:33:09.549Z,18.40
2018-08-13T00:35:38.055Z,18.40
2018-08-13T00:38:06.385Z,18.40
2018-08-13T00:40:33.913Z,18.30
2018-08-13T00:43:01.478Z,18.40
2018-08-13T00:45:29.044Z,18.20
2018-08-13T00:47:56.609Z,18.20
2018-08-13T00:50:24.137Z,18.10
2018-08-13T00:52:51.706Z,18.10
2018-08-13T00:55:19.243Z,18.10
2018-08-13T00:57:46.801Z,18.10
2018-08-13T01:00:14.333Z,18.00
2018-08-13T01:02:41.901Z,18.00
2018-08-13T01:05:10.209Z,17.90
2018-08-13T01:07:37.751Z,17.90
2018-08-13T01:10:05.310Z,17.90
2018-08-13T01:12:32.873Z,17.90
2018-08-13T01:15:00.439Z,17.90
2018-08-13T01:17:27.975Z,17.70
2018-08-13T01:19:55.533Z,17.60
2018-08-13T01:22:23.106Z,17.70
2018-08-13T01:24:52.617Z,17.60
2018-08-13T01:27:20.149Z,17.60
2018-08-13T01:29:48.477Z,17.60
2018-08-13T01:32:16.046Z,17.60
2018-08-13T01:34:43.617Z,17.60
2018-08-13T01:37:11.154Z,17.50
2018-08-13T01:39:38.696Z,17.50
2018-08-13T01:42:06.269Z,17.50
2018-08-13T01:44:33.806Z,17.40
2018-08-13T01:47:02.326Z,17.40
2018-08-13T01:49:29.870Z,17.40
2018-08-13T01:51:57.407Z,17.40
2018-08-13T01:54:26.914Z,17.40
2018-08-13T01:56:54.454Z,17.40
2018-08-13T01:59:22.026Z,17.40
2018-08-13T02:01:49.644Z,17.40
2018-08-13T02:04:17.149Z,17.50
2018-08-13T02:06:44.697Z,17.50
2018-08-13T02:09:12.273Z,17.60
2018-08-13T02:11:39.813Z,17.50
2018-08-13T02:14:07.373Z,17.50
2018-08-13T02:16:35.897Z,17.40
2018-08-13T02:19:04.398Z,17.30
2018-08-13T02:21:31.970Z,17.30
2018-08-13T02:23:59.506Z,17.20
2018-08-13T02:26:27.063Z,17.20
2018-08-13T02:28:54.641Z,17.10
2018-08-13T02:31:23.128Z,17.30
2018-08-13T02:33:50.696Z,17.30
2018-08-13T02:36:18.265Z,17.30
2018-08-13T02:38:45.799Z,17.30
2018-08-13T02:41:13.365Z,17.20
2018-08-13T02:43:40.924Z,17.20
2018-08-13T02:46:08.502Z,17.20
2018-08-13T02:48:36.048Z,17.20
2018-08-13T02:51:03.618Z,17.20
2018-08-13T02:53:31.153Z,17.20
2018-08-13T02:55:58.726Z,17.20
2018-08-13T02:58:26.263Z,17.20
2018-08-13T03:00:53.850Z,17.20
2018-08-13T03:03:21.385Z,17.20
2018-08-13T03:05:49.908Z,17.10
2018-08-13T03:08:17.457Z,17.00
2018-08-13T03:10:45.796Z,17.00
2018-08-13T03:13:13.336Z,17.00
2018-08-13T03:15:40.897Z,17.00
2018-08-13T03:18:08.455Z,17.10
2018-08-13T03:20:35.993Z,17.20
2018-08-13T03:23:03.550Z,17.20
2018-08-13T03:25:31.126Z,17.30
2018-08-13T03:27:58.693Z,17.30
2018-08-13T03:30:26.231Z,17.30
2018-08-13T03:32:54.736Z,17.30
2018-08-13T03:35:22.302Z,17.30
2018-08-13T03:37:49.833Z,17.40
2018-08-13T03:40:17.397Z,17.30
2018-08-13T03:42:44.941Z,17.30
2018-08-13T03:45:14.353Z,17.10
2018-08-13T03:47:41.899Z,17.10
2018-08-13T03:50:09.462Z,17.10
2018-08-13T03:52:37.005Z,17.00
2018-08-13T03:55:04.573Z,16.90
2018-08-13T03:57:32.117Z,17.00
2018-08-13T03:59:59.687Z,16.90
2018-08-13T04:02:27.259Z,16.80
2018-08-13T04:04:54.835Z,16.80
2018-08-13T04:07:22.403Z,16.80
2018-08-13T04:09:49.947Z,16.90
2018-08-13T04:12:17.511Z,16.90
2018-08-13T04:14:45.055Z,17.00
2018-08-13T04:17:12.629Z,16.80
2018-08-13T04:19:40.193Z,16.90
2018-08-13T04:22:07.759Z,16.90
2018-08-13T04:24:37.074Z,17.00
2018-08-13T04:27:04.674Z,17.00
2018-08-13T04:29:32.275Z,17.00
2018-08-13T04:31:59.825Z,17.20
2018-08-13T04:34:27.369Z,17.30
2018-08-13T04:36:54.934Z,17.40
2018-08-13T04:39:22.462Z,17.40
2018-08-13T04:41:50.025Z,17.60
2018-08-13T04:44:17.581Z,18.40
2018-08-13T04:46:45.150Z,18.60
2018-08-13T04:49:12.685Z,18.70
2018-08-13T04:51:40.230Z,18.80
2018-08-13T04:54:07.790Z,18.90
2018-08-13T04:56:35.369Z,19.30
2018-08-13T04:59:03.020Z,20.00
2018-08-13T05:01:30.517Z,20.50
2018-08-13T05:03:58.842Z,22.20
2018-08-13T05:06:26.406Z,22.20
2018-08-13T05:08:53.981Z,22.70
2018-08-13T05:11:21.525Z,22.90
2018-08-13T05:13:49.083Z,23.10
2018-08-13T05:16:16.655Z,23.50
2018-08-13T05:18:44.217Z,23.60
2018-08-13T05:21:11.793Z,23.70
2018-08-13T05:23:39.349Z,23.80
2018-08-13T05:26:06.912Z,23.80
2018-08-13T05:28:35.242Z,23.70
2018-08-13T05:31:03.755Z,23.70
2018-08-13T05:33:31.318Z,23.70
2018-08-13T05:35:58.894Z,23.70
2018-08-13T05:38:27.200Z,23.50
2018-08-13T05:40:54.758Z,23.50
2018-08-13T05:43:22.338Z,23.40
2018-08-13T05:45:49.873Z,23.30
2018-08-13T05:48:17.429Z,23.00
2018-08-13T05:50:44.990Z,22.80
2018-08-13T05:53:12.554Z,22.50
2018-08-13T05:55:40.096Z,22.00
2018-08-13T05:58:07.674Z,21.60
2018-08-13T06:00:35.213Z,20.90
2018-08-13T06:03:02.808Z,20.40
2018-08-13T06:05:30.334Z,20.20
2018-08-13T06:07:57.903Z,20.10
2018-08-13T06:10:25.455Z,20.10
2018-08-13T06:12:53.002Z,20.00
2018-08-13T06:15:20.586Z,20.00
2018-08-13T06:17:48.129Z,19.90
2018-08-13T06:20:15.714Z,19.60
2018-08-13T06:22:43.278Z,19.50
2018-08-13T06:25:10.830Z,19.60
2018-08-13T06:27:40.338Z,19.60
2018-08-13T06:30:08.420Z,19.70
2018-08-13T06:32:35.953Z,19.70
2018-08-13T06:35:03.488Z,19.70
2018-08-13T06:37:33.010Z,19.70
2018-08-13T06:40:00.556Z,19.80
2018-08-13T06:42:28.114Z,19.70
2018-08-13T06:44:55.645Z,19.50
2018-08-13T06:47:25.159Z,19.40
2018-08-13T06:49:52.685Z,19.40
2018-08-13T06:52:20.229Z,19.50
2018-08-13T06:54:47.804Z,19.60
2018-08-13T06:57:15.350Z,19.60
2018-08-13T06:59:44.874Z,19.70
2018-08-13T07:02:12.411Z,19.80
2018-08-13T07:04:39.969Z,19.80
2018-08-13T07:07:07.507Z,19.70
2018-08-13T07:09:35.083Z,19.50
2018-08-13T07:12:02.634Z,19.40
2018-08-13T07:14:30.201Z,19.30
2018-08-13T07:16:57.734Z,19.50
2018-08-13T07:19:26.059Z,19.50
2018-08-13T07:21:53.622Z,19.50
2018-08-13T07:24:21.198Z,19.70
2018-08-13T07:26:48.758Z,19.70
2018-08-13T07:29:16.324Z,19.70
2018-08-13T07:31:43.906Z,19.80
2018-08-13T07:34:11.473Z,19.80
2018-08-13T07:36:39.998Z,19.70
2018-08-13T07:39:08.471Z,19.70
2018-08-13T07:41:35.902Z,19.60
2018-08-13T07:44:03.467Z,19.50
2018-08-13T07:46:31.063Z,19.60
2018-08-13T07:48:58.597Z,19.80
2018-08-13T07:51:26.158Z,20.00
2018-08-13T07:53:53.731Z,20.10
2018-08-13T07:56:21.263Z,20.10
2018-08-13T07:58:48.830Z,20.20
2018-08-13T08:01:16.397Z,20.00
2018-08-13T08:03:43.949Z,20.00
2018-08-13T08:06:11.497Z,20.10
2018-08-13T08:08:39.058Z,20.30
2018-08-13T08:11:06.598Z,20.40
2018-08-13T08:13:34.178Z,20.50
2018-08-13T08:16:01.711Z,20.60
2018-08-13T08:18:29.630Z,20.40
2018-08-13T08:20:57.930Z,20.40
2018-08-13T08:23:25.478Z,20.40
2018-08-13T08:25:53.811Z,20.50
2018-08-13T08:28:21.613Z,20.40
2018-08-13T08:30:50.869Z,20.50
2018-08-13T08:33:18.407Z,20.50
2018-08-13T08:35:45.999Z,20.50
2018-08-13T08:38:13.610Z,20.50
2018-08-13T08:40:41.282Z,20.40
2018-08-13T08:43:08.840Z,20.40
2018-08-13T08:45:36.407Z,20.30
2018-08-13T08:48:03.945Z,20.30
2018-08-13T08:50:31.474Z,20.20
2018-08-13T08:52:59.802Z,20.10
2018-08-13T08:55:27.358Z,20.10
2018-08-13T08:57:54.922Z,20.10
2018-08-13T09:00:22.458Z,20.10
2018-08-13T09:02:51.006Z,20.00
2018-08-13T09:05:18.577Z,19.80
2018-08-13T09:07:46.136Z,19.80
2018-08-13T09:10:13.677Z,19.70
2018-08-13T09:12:42.175Z,19.70
2018-08-13T09:15:09.751Z,19.70
2018-08-13T09:17:37.291Z,19.70
2018-08-13T09:20:16.775Z,19.80
2018-08-13T09:22:56.030Z,20.00
2018-08-13T09:25:36.206Z,20.00
2018-08-13T09:31:09.925Z,19.60
2018-08-13T09:33:49.270Z,19.70
2018-08-13T09:36:17.783Z,19.50
2018-08-13T09:38:45.344Z,19.80
2018-08-13T09:41:12.881Z,19.70
2018-08-13T09:43:40.417Z,19.50
2018-08-13T09:46:07.982Z,19.50
2018-08-13T09:48:35.514Z,19.40
2018-08-13T09:51:04.062Z,19.40
2018-08-13T09:53:32.375Z,19.60
2018-08-13T09:55:59.967Z,19.60
2018-08-13T09:58:27.577Z,19.90
2018-08-13T10:00:55.141Z,20.20
2018-08-13T10:03:22.685Z,20.20
2018-08-13T10:05:50.254Z,20.20
2018-08-13T10:08:17.789Z,19.90
2018-08-13T10:10:46.145Z,19.80
2018-08-13T10:13:14.655Z,19.80
2018-08-13T10:15:42.225Z,19.50
2018-08-13T10:18:09.818Z,19.60
2018-08-13T10:20:37.378Z,20.10
2018-08-13T10:23:06.894Z,20.30
2018-08-13T10:25:34.434Z,20.50
2018-08-13T10:28:03.943Z,20.30
2018-08-13T10:30:31.511Z,20.40
2018-08-13T10:32:59.047Z,20.40
2018-08-13T10:35:26.645Z,20.40
2018-08-13T10:37:54.177Z,20.50
2018-08-13T10:40:21.737Z,20.30
2018-08-13T10:42:49.307Z,20.20
2018-08-13T10:45:16.859Z,20.60
2018-08-13T10:47:44.425Z,20.60
2018-08-13T10:50:11.995Z,20.60
2018-08-13T10:52:39.562Z,20.80
2018-08-13T10:55:08.066Z,20.90
2018-08-13T10:57:35.634Z,21.30
2018-08-13T11:00:03.179Z,21.80
2018-08-13T11:02:30.746Z,22.00
2018-08-13T11:04:58.273Z,22.10
2018-08-13T11:07:25.850Z,22.40
2018-08-13T11:09:53.399Z,22.50
2018-08-13T11:12:20.946Z,22.60
2018-08-13T11:14:48.522Z,22.50
2018-08-13T11:17:16.094Z,22.60
2018-08-13T11:19:43.675Z,22.60
2018-08-13T11:22:11.220Z,22.70
2018-08-13T11:24:38.784Z,23.00
2018-08-13T11:27:06.351Z,23.20
2018-08-13T11:29:33.913Z,23.50
2018-08-13T11:32:01.455Z,23.70
2018-08-13T11:34:29.011Z,23.90
2018-08-13T11:36:56.581Z,24.10
2018-08-13T11:39:24.117Z,24.40
2018-08-13T11:41:51.684Z,23.90
2018-08-13T11:44:19.241Z,24.00
2018-08-13T11:46:46.784Z,24.00
2018-08-13T11:49:14.348Z,23.70
2018-08-13T11:51:41.882Z,24.30
2018-08-13T11:54:09.445Z,24.70
2018-08-13T11:56:36.983Z,24.80
2018-08-13T11:59:04.553Z,25.00
2018-08-13T12:01:32.102Z,25.30
2018-08-13T12:03:59.657Z,25.30
2018-08-13T12:06:27.254Z,25.70
2018-08-13T12:08:54.801Z,25.80
2018-08-13T12:11:22.373Z,25.90
2018-08-13T12:13:49.955Z,25.80
2018-08-13T12:16:18.265Z,25.80
2018-08-13T12:18:45.833Z,25.80
2018-08-13T12:21:13.373Z,25.80
2018-08-13T12:23:40.943Z,25.80
2018-08-13T12:26:08.486Z,26.00
2018-08-13T12:28:37.938Z,26.10
2018-08-13T12:31:05.475Z,26.30
2018-08-13T12:33:33.038Z,26.20
2018-08-13T12:36:00.579Z,26.70
2018-08-13T12:38:28.114Z,26.00
2018-08-13T12:40:55.689Z,26.00
2018-08-13T12:43:23.222Z,26.40
2018-08-13T12:45:50.798Z,26.40
2018-08-13T12:48:18.377Z,26.40
2018-08-13T12:50:45.914Z,26.40
2018-08-13T12:53:13.473Z,26.70
2018-08-13T12:55:41.037Z,26.70
2018-08-13T12:58:08.606Z,26.40
2018-08-13T13:00:36.162Z,26.70
2018-08-13T13:03:03.717Z,25.80
2018-08-13T13:05:31.323Z,25.80
2018-08-13T13:07:58.908Z,25.90
2018-08-13T13:10:26.603Z,26.40
2018-08-13T13:12:54.189Z,26.10
2018-08-13T13:15:22.533Z,26.10
2018-08-13T13:17:50.295Z,26.10
2018-08-13T13:20:18.072Z,26.00
2018-08-13T13:22:45.704Z,25.50
2018-08-13T13:25:13.347Z,25.50
2018-08-13T13:27:40.964Z,25.90
2018-08-13T13:30:10.286Z,26.30
2018-08-13T13:32:38.991Z,26.30
2018-08-13T13:35:07.123Z,26.30
2018-08-13T13:37:35.083Z,26.20
2018-08-13T13:40:03.486Z,26.30
2018-08-13T13:42:31.175Z,26.20
2018-08-13T13:44:58.829Z,26.20
2018-08-13T13:47:26.385Z,26.70
2018-08-13T13:49:55.963Z,27.00
2018-08-13T13:52:23.575Z,26.90
2018-08-13T13:54:51.327Z,26.70
2018-08-13T13:57:20.242Z,26.70
2018-08-13T13:59:47.843Z,26.70
2018-08-13T14:02:15.404Z,26.60
2018-08-13T14:04:42.965Z,26.80
2018-08-13T14:07:10.505Z,27.70
2018-08-13T14:09:38.061Z,27.70
2018-08-13T14:12:05.621Z,27.90
2018-08-13T14:14:33.150Z,27.70
2018-08-13T14:17:00.716Z,27.20
2018-08-13T14:19:28.285Z,26.90
2018-08-13T14:21:55.838Z,26.80
2018-08-13T14:24:25.381Z,26.80
2018-08-13T14:26:52.955Z,27.30
2018-08-13T14:29:20.531Z,28.30
2018-08-13T14:31:49.057Z,29.10
2018-08-13T14:34:16.647Z,28.50
2018-08-13T14:36:44.237Z,28.00
2018-08-13T14:39:11.819Z,27.60
2018-08-13T14:41:39.395Z,27.20
2018-08-13T14:44:06.943Z,26.50
2018-08-13T14:46:34.525Z,26.20
2018-08-13T14:49:03.054Z,26.50
2018-08-13T14:51:30.655Z,27.70
2018-08-13T14:53:58.220Z,28.20
2018-08-13T14:56:25.963Z,27.30
2018-08-13T14:58:53.591Z,26.50
2018-08-13T15:01:21.178Z,26.30
2018-08-13T15:03:48.759Z,25.60
2018-08-13T15:06:16.419Z,25.20
2018-08-13T15:08:44.078Z,25.00
2018-08-13T15:11:11.644Z,22.20
2018-08-13T15:13:39.260Z,20.30
2018-08-13T15:16:07.917Z,19.40
2018-08-13T15:18:36.518Z,19.40
2018-08-13T15:21:04.093Z,20.90
2018-08-13T15:23:31.665Z,22.30
2018-08-13T15:25:59.282Z,22.90
2018-08-13T15:28:26.902Z,22.90
2018-08-13T15:30:54.483Z,22.00
2018-08-13T15:33:22.121Z,21.70
2018-08-13T15:35:49.673Z,21.50
2018-08-13T15:38:17.252Z,21.40
2018-08-13T15:40:45.679Z,21.60
2018-08-13T15:43:13.312Z,21.50
2018-08-13T15:45:40.917Z,21.60
2018-08-13T15:48:09.475Z,21.70
2018-08-13T15:50:37.058Z,21.80
2018-08-13T15:53:04.688Z,21.70
2018-08-13T15:58:07.098Z,21.40
2018-08-13T16:00:34.706Z,21.70
2018-08-13T16:03:02.305Z,21.90
2018-08-13T16:05:29.869Z,22.20
2018-08-13T16:07:57.523Z,22.30
2018-08-13T16:10:25.055Z,23.60
2018-08-13T16:12:52.659Z,24.50
2018-08-13T16:15:21.138Z,24.00
2018-08-13T16:17:48.730Z,23.30
2018-08-13T16:20:16.315Z,22.80
2018-08-13T16:22:43.887Z,22.40
2018-08-13T16:25:11.476Z,22.00
2018-08-13T16:27:39.054Z,21.90
2018-08-13T16:30:06.636Z,21.70
2018-08-13T16:32:34.216Z,21.30
2018-08-13T16:35:01.796Z,21.10
2018-08-13T16:37:29.425Z,21.30
2018-08-13T16:39:57.033Z,20.80
2018-08-13T16:42:24.642Z,20.70
2018-08-13T16:44:52.180Z,20.60
2018-08-13T16:47:19.795Z,20.50
2018-08-13T16:49:48.346Z,20.20
2018-08-13T16:52:15.972Z,20.10
2018-08-13T16:54:45.546Z,20.10
2018-08-13T16:57:13.882Z,20.20
2018-08-13T16:59:41.462Z,20.10
2018-08-13T17:02:10.018Z,20.20
2018-08-13T17:04:37.604Z,20.40
2018-08-13T17:07:05.176Z,20.40
2018-08-13T17:09:32.757Z,20.30
2018-08-13T17:12:00.312Z,20.00
2018-08-13T17:14:28.000Z,20.10
2018-08-13T17:16:55.567Z,20.20
2018-08-13T17:19:23.776Z,20.30
2018-08-13T17:21:51.348Z,20.30
2018-08-13T17:24:18.938Z,20.20
2018-08-13T17:26:46.589Z,20.20
2018-08-13T17:29:14.612Z,20.20
2018-08-13T17:31:42.242Z,20.10
2018-08-13T17:34:10.858Z,20.00
2018-08-13T17:36:38.405Z,20.00
2018-08-13T17:39:07.953Z,20.00
2018-08-13T17:41:37.434Z,19.90
2018-08-13T17:44:04.993Z,19.80
2018-08-13T17:46:32.529Z,19.70
2018-08-13T17:49:00.098Z,19.80
2018-08-13T17:51:27.628Z,19.70
2018-08-13T17:53:55.962Z,19.60
2018-08-13T17:56:23.563Z,19.50
2018-08-13T17:58:51.083Z,19.70
2018-08-13T18:01:18.616Z,19.70
2018-08-13T18:03:46.186Z,19.70
2018-08-13T18:06:13.734Z,19.60
2018-08-13T18:08:41.302Z,19.50
2018-08-13T18:11:08.866Z,19.40
2018-08-13T18:13:36.421Z,19.30
2018-08-13T18:16:03.962Z,19.30
2018-08-13T18:18:31.513Z,19.20
2018-08-13T18:20:59.080Z,19.20
2018-08-13T18:23:26.611Z,19.20
2018-08-13T18:25:54.169Z,19.20
2018-08-13T18:28:21.697Z,19.20
2018-08-13T18:30:49.234Z,19.20
2018-08-13T18:33:18.770Z,19.20
2018-08-13T18:35:46.329Z,19.20
2018-08-13T18:38:13.893Z,19.10
2018-08-13T18:40:42.200Z,18.90
2018-08-13T18:43:09.766Z,18.90
2018-08-13T18:45:37.326Z,20.10
2018-08-13T18:48:04.889Z,19.30
2018-08-13T18:50:32.421Z,18.80
2018-08-13T18:52:59.948Z,18.60
2018-08-13T18:55:27.514Z,18.50
2018-08-13T18:57:55.050Z,18.50
2018-08-13T19:00:22.617Z,18.40
2018-08-13T19:02:50.194Z,18.40
2018-08-13T19:05:17.769Z,18.30
2018-08-13T19:07:45.302Z,18.20
2018-08-13T19:10:13.651Z,18.20
2018-08-13T19:12:41.185Z,18.20
2018-08-13T19:15:08.754Z,18.10
2018-08-13T19:17:36.295Z,18.00
2018-08-13T19:20:03.869Z,18.10
2018-08-13T19:22:31.444Z,18.10
2018-08-13T19:25:00.603Z,18.10
2018-08-13T19:27:28.167Z,18.10
2018-08-13T19:29:55.724Z,18.10
2018-08-13T19:32:23.286Z,18.00
2018-08-13T19:34:50.847Z,18.00
2018-08-13T19:37:18.381Z,18.00
2018-08-13T19:39:45.942Z,17.90
2018-08-13T19:42:13.502Z,17.90
2018-08-13T19:44:41.058Z,17.90
2018-08-13T19:47:08.618Z,17.90
2018-08-13T19:49:36.146Z,17.90
2018-08-13T19:52:03.712Z,17.90
2018-08-13T19:54:31.241Z,18.00
2018-08-13T19:57:00.691Z,17.90
2018-08-13T19:59:28.258Z,17.90
2018-08-13T20:01:55.802Z,17.80
2018-08-13T20:04:23.364Z,17.90
2018-08-13T20:06:50.926Z,17.90
2018-08-13T20:09:18.458Z,17.90
2018-08-13T20:11:46.023Z,17.80
2018-08-13T20:14:13.557Z,17.80
2018-08-13T20:16:41.126Z,17.80
2018-08-13T20:19:08.665Z,17.90
2018-08-13T20:21:36.253Z,17.90
2018-08-13T20:24:03.833Z,18.00
2018-08-13T20:26:31.397Z,17.90
2018-08-13T20:28:58.977Z,17.90
2018-08-13T20:31:26.510Z,17.80
2018-08-13T20:33:54.069Z,17.80
2018-08-13T20:36:21.643Z,17.80
2018-08-13T20:38:51.189Z,17.80
2018-08-13T20:41:18.726Z,17.90
2018-08-13T20:43:47.023Z,17.90
2018-08-13T20:46:15.586Z,17.90
2018-08-13T20:48:43.125Z,17.90
2018-08-13T20:51:10.688Z,17.90
2018-08-13T20:53:38.998Z,18.00
2018-08-13T20:56:06.559Z,18.00
2018-08-13T20:58:34.098Z,18.00
2018-08-13T21:01:03.595Z,18.00
2018-08-13T21:03:31.144Z,18.00
2018-08-13T21:05:58.701Z,18.00
2018-08-13T21:08:26.238Z,18.00
2018-08-13T21:10:53.797Z,18.00
2018-08-13T21:13:21.333Z,18.00
2018-08-13T21:15:48.928Z,18.00
2018-08-13T21:18:18.227Z,17.90
2018-08-13T21:20:46.534Z,17.90
2018-08-13T21:23:14.097Z,17.90
2018-08-13T21:25:41.699Z,17.90
2018-08-13T21:28:09.227Z,17.80
2018-08-13T21:30:36.782Z,17.80
2018-08-13T21:33:04.346Z,17.90
2018-08-13T21:35:32.858Z,17.80
2018-08-13T21:38:02.369Z,17.80
2018-08-13T21:40:29.969Z,17.80
2018-08-13T21:42:59.518Z,17.80
2018-08-13T21:45:27.063Z,17.70
2018-08-13T21:47:54.617Z,17.70
2018-08-13T21:50:22.190Z,17.70
2018-08-13T21:52:49.753Z,17.80
2018-08-13T21:55:17.302Z,17.90
2018-08-13T21:57:45.631Z,17.90
2018-08-13T22:00:13.174Z,17.90
2018-08-13T22:02:40.733Z,17.90
2018-08-13T22:05:08.341Z,17.90
2018-08-13T22:07:35.907Z,17.90
2018-08-13T22:10:03.441Z,17.90
2018-08-13T22:12:30.975Z,17.90
2018-08-13T22:14:58.540Z,17.90
2018-08-13T22:17:28.069Z,17.90
2018-08-13T22:19:55.625Z,17.90
2018-08-13T22:22:23.165Z,17.80
2018-08-13T22:24:53.485Z,17.80
2018-08-13T22:27:21.045Z,17.80
2018-08-13T22:29:48.577Z,17.70
2018-08-13T22:32:16.142Z,17.70
2018-08-13T22:34:43.678Z,17.60
2018-08-13T22:37:11.241Z,17.70
2018-08-13T22:39:38.810Z,17.70
2018-08-13T22:42:06.365Z,17.80
2018-08-13T22:44:33.930Z,17.70
2018-08-13T22:47:02.454Z,17.60
2018-08-13T22:49:30.027Z,17.60
2018-08-13T22:51:58.354Z,17.60
2018-08-13T22:54:25.909Z,17.60
2018-08-13T22:56:53.538Z,17.60
2018-08-13T22:59:22.058Z,17.50
2018-08-13T23:01:49.605Z,17.60
2018-08-13T23:04:17.161Z,17.70
2018-08-13T23:06:44.704Z,17.70
2018-08-13T23:09:12.274Z,17.70
2018-08-13T23:11:39.863Z,17.80
2018-08-13T23:14:07.392Z,17.70
2018-08-13T23:16:34.973Z,17.80
2018-08-13T23:19:02.513Z,17.80
2018-08-13T23:21:30.069Z,17.70
2018-08-13T23:23:57.635Z,17.70
2018-08-13T23:26:25.175Z,17.70
2018-08-13T23:28:52.735Z,17.70
2018-08-13T23:31:21.280Z,17.70
2018-08-13T23:33:50.765Z,17.70
2018-08-13T23:36:19.237Z,17.70
2018-08-13T23:38:48.730Z,17.70
2018-08-13T23:41:17.227Z,17.70
2018-08-13T23:43:45.770Z,17.70
2018-08-13T23:46:13.306Z,17.70
2018-08-13T23:48:40.902Z,17.60
2018-08-13T23:51:08.434Z,17.60
2018-08-13T23:53:36.938Z,17.50
2018-08-13T23:56:04.495Z,17.50
2018-08-13T23:58:32.043Z,17.50
